Kissimmee, FL

2:37 AM EDT on April 28, 2015 (GMT -0400)
OHP | | Change Station
CLOSE
Current Station
Personal Weather Station
Location: Kissimmee, FL
Elevation: 82 ft
Nearby Weather Stations

Elev 82 ft 28.29 °N, 81.37 °W | Updated 5 minutes ago

Overcast
Overcast
71.4 °F
Feels Like 71.4 °F
N
3.0
Wind Variable Wind from SE
Gusts 7.0 mph

Today
High -- | Low -- °F
--% Chance of Precip.
Yesterday
High -- | Low -- °F
Precip. -- in
6:48 AM 7:58 PM
Waxing Gibbous, 71% visible
Pressure 29.80 in
Visibility 10.0 miles
Clouds Few 9000 ft
Mostly Cloudy 11000 ft
Overcast 15000 ft
Dew Point 67 °F
Humidity 86%
Rainfall 0.00 in
Snow Depth Not available.
UV 0 out of 12
Pollen 8.60 out of 12
Air Quality Not available.
Flu Activity Local Activity
METAR KMCO 280553Z 12008KT 10SM FEW090 BKN110 OVC150 22/19 A2980 RMK AO2 RAB19E47 SLP090 P0000 60000 T02170189 10250 20217 58028

More Conditions Fewer Conditions

Pressure 29.80 in
Visibility 10.0 miles
Clouds Few 9000 ft
Mostly Cloudy 11000 ft
Overcast 15000 ft
Dew Point 67 °F
Humidity 86%
Rainfall 0.00 in
Snow Depth Not available.
UV 0 out of 12
Pollen 8.60 out of 12
Air Quality Not available.
Flu Activity Local Activity
METAR KMCO 280553Z 12008KT 10SM FEW090 BKN110 OVC150 22/19 A2980 RMK AO2 RAB19E47 SLP090 P0000 60000 T02170189 10250 20217 58028

More Conditions Fewer Conditions

Nowcast | as of 10:43 PM EDT on April 27, 2015

Moisture streaming across central Florida from the Gulf of Mexico and a stationary frontal boundary near the region will help keep a chance of showers in the forecast for east central Florida overnight. Higher rain chances will occur north of Kissimmee and Titusville where the deepest moisture and disturbance aloft area forecast. Additional details...including graphics are available online at: http://www.Srh.NOAA.Gov/mlb/blog.Php

×

10-Day Weather Forecast

Almanac

Astronomy

Apr. 28, 2015 Rise Set
Actual Time
Civil Twilight
Nautical Twilight
Astronomical Twilight
Moon
Length of Visible Light
Length of Day
Tomorrow will be .
, % of the Moon is Illuminated

Today's Extremes

State Highs State Lows

Community

WunderPhotos

Upload Photos

1,817,591 photos uploaded!

WunderBlogs® & News

Nearby

Air Quality

  Air Quality AQ Index Pollutant
Not available.

Snow Depth

Station Depth Elevation

Earthquake Activity

City Distance Mag. Time & Date
Minimum magnitude displayed is 2.5.

Coastal Water Temperatures

Place Temperature

Stations

Nearby Weather Stations

Station Location Temp. Windchill Dew Point Humidity Wind Precip. Elev Updated Type